createdAt,value
2018-06-30T00:00:45.139Z,19.48
2018-06-30T00:03:14.096Z,19.49
2018-06-30T00:05:43.101Z,19.50
2018-06-30T00:08:12.048Z,19.52
2018-06-30T00:10:41.093Z,19.56
2018-06-30T00:13:10.204Z,19.59
2018-06-30T00:15:39.124Z,19.55
2018-06-30T00:18:08.164Z,19.52
2018-06-30T00:20:37.235Z,19.49
2018-06-30T00:23:06.400Z,19.48
2018-06-30T00:25:35.402Z,19.44
2018-06-30T00:28:04.414Z,19.41
2018-06-30T00:30:33.345Z,19.35
2018-06-30T00:33:02.269Z,19.30
2018-06-30T00:35:31.231Z,19.26
2018-06-30T00:38:00.147Z,19.23
2018-06-30T00:40:29.039Z,19.19
2018-06-30T00:42:58.085Z,19.11
2018-06-30T00:45:27.172Z,19.03
2018-06-30T00:47:56.108Z,18.91
2018-06-30T00:50:25.039Z,18.81
2018-06-30T00:52:54.056Z,18.77
2018-06-30T00:55:23.772Z,18.77
2018-06-30T00:57:54.230Z,18.77
2018-06-30T01:00:23.151Z,18.76
2018-06-30T01:02:52.076Z,18.77
2018-06-30T01:05:21.058Z,18.82
2018-06-30T01:07:50.053Z,18.79
2018-06-30T01:10:19.796Z,18.79
2018-06-30T01:12:51.052Z,18.77
2018-06-30T01:15:20.040Z,18.75
2018-06-30T01:17:48.947Z,18.74
2018-06-30T01:20:18.495Z,18.74
2018-06-30T01:22:47.406Z,18.72
2018-06-30T01:25:16.325Z,18.72
2018-06-30T01:27:45.251Z,18.73
2018-06-30T01:30:14.566Z,18.73
2018-06-30T01:32:43.485Z,18.68
2018-06-30T01:35:13.123Z,18.61
2018-06-30T01:37:42.691Z,18.57
2018-06-30T01:40:11.623Z,18.54
2018-06-30T01:42:40.689Z,18.51
2018-06-30T01:45:09.654Z,18.49
2018-06-30T01:47:39.201Z,18.47
2018-06-30T01:50:08.345Z,18.41
2018-06-30T01:52:37.386Z,18.36
2018-06-30T01:55:06.387Z,18.34
2018-06-30T01:57:35.326Z,18.34
2018-06-30T02:00:05.804Z,18.35
2018-06-30T02:02:34.778Z,18.36
2018-06-30T02:05:03.854Z,18.38
2018-06-30T02:07:33.512Z,18.41
2018-06-30T02:10:03.075Z,18.40
2018-06-30T02:12:32.460Z,18.39
2018-06-30T02:15:02.552Z,18.39
2018-06-30T02:17:32.606Z,18.41
2018-06-30T02:20:01.551Z,18.39
2018-06-30T02:22:30.465Z,18.30
2018-06-30T02:24:59.515Z,18.22
2018-06-30T02:27:28.467Z,18.12
2018-06-30T02:29:57.385Z,18.04
2018-06-30T02:32:26.455Z,17.97
2018-06-30T02:34:55.439Z,17.92
2018-06-30T02:37:24.427Z,17.85
2018-06-30T02:39:54.090Z,17.83
2018-06-30T02:42:23.572Z,17.78
2018-06-30T02:44:52.499Z,17.80
2018-06-30T02:47:21.460Z,17.84
2018-06-30T02:49:51.087Z,17.87
2018-06-30T02:52:20.035Z,17.88
2018-06-30T02:54:49.216Z,17.87
2018-06-30T02:57:18.148Z,17.87
2018-06-30T02:59:47.131Z,17.88
2018-06-30T03:02:16.294Z,17.88
2018-06-30T03:04:45.222Z,17.91
2018-06-30T03:07:14.127Z,17.96
2018-06-30T03:09:43.193Z,17.99
2018-06-30T03:12:12.143Z,18.04
2018-06-30T03:14:41.120Z,18.09
2018-06-30T03:17:10.174Z,18.17
2018-06-30T03:19:39.106Z,18.21
2018-06-30T03:22:08.014Z,18.24
2018-06-30T03:24:36.982Z,18.32
2018-06-30T03:27:05.985Z,18.37
2018-06-30T03:29:34.976Z,18.42
2018-06-30T03:32:04.722Z,18.52
2018-06-30T03:34:33.607Z,18.59
2018-06-30T03:37:02.633Z,18.64
2018-06-30T03:39:31.688Z,18.70
2018-06-30T03:42:00.675Z,18.77
2018-06-30T03:44:29.615Z,18.84
2018-06-30T03:46:58.628Z,18.91
2018-06-30T03:49:28.512Z,18.93
2018-06-30T03:51:57.423Z,18.94
2018-06-30T03:54:26.376Z,18.94
2018-06-30T03:56:55.324Z,18.95
2018-06-30T03:59:25.156Z,18.98
2018-06-30T04:01:54.187Z,19.01
2018-06-30T04:04:23.151Z,19.08
2018-06-30T04:06:52.068Z,19.11
2018-06-30T04:09:21.480Z,19.12
2018-06-30T04:11:51.685Z,19.17
2018-06-30T04:14:20.679Z,19.23
2018-06-30T04:16:49.736Z,19.22
2018-06-30T04:19:19.568Z,19.32
2018-06-30T04:21:48.627Z,19.39
2018-06-30T04:24:17.592Z,19.43
2018-06-30T04:26:46.573Z,19.47
2018-06-30T04:29:15.536Z,19.52
2018-06-30T04:31:45.495Z,19.52
2018-06-30T04:34:14.464Z,19.57
2018-06-30T04:36:45.631Z,19.67
2018-06-30T04:39:14.640Z,19.74
2018-06-30T04:41:43.587Z,19.84
2018-06-30T04:44:12.628Z,19.88
2018-06-30T04:46:41.561Z,19.94
2018-06-30T04:49:10.543Z,19.87
2018-06-30T04:51:39.696Z,19.71
2018-06-30T04:54:08.761Z,19.60
2018-06-30T04:56:37.782Z,19.65
2018-06-30T04:59:06.932Z,19.74
2018-06-30T05:01:35.945Z,19.79
2018-06-30T05:04:04.952Z,19.80
2018-06-30T05:06:34.032Z,19.84
2018-06-30T05:09:04.025Z,19.87
2018-06-30T05:11:33.056Z,19.91
2018-06-30T05:14:02.077Z,19.93
2018-06-30T05:16:31.088Z,19.95
2018-06-30T05:19:00.713Z,19.94
2018-06-30T05:21:29.799Z,20.01
2018-06-30T05:23:59.358Z,20.04
2018-06-30T05:26:28.342Z,20.03
2018-06-30T05:28:57.307Z,20.07
2018-06-30T05:31:26.300Z,20.14
2018-06-30T05:33:56.351Z,20.17
2018-06-30T05:36:25.491Z,20.23
2018-06-30T05:38:54.496Z,20.29
2018-06-30T05:41:23.462Z,20.31
2018-06-30T05:43:52.536Z,20.37
2018-06-30T05:46:22.161Z,20.45
2018-06-30T05:48:51.252Z,20.50
2018-06-30T05:51:20.305Z,20.58
2018-06-30T05:53:49.300Z,20.58
2018-06-30T05:56:18.223Z,20.56
2018-06-30T05:58:47.291Z,20.46
2018-06-30T06:01:16.262Z,20.42
2018-06-30T06:03:45.188Z,20.43
2018-06-30T06:06:14.227Z,20.44
2018-06-30T06:08:43.188Z,20.50
2018-06-30T06:11:12.689Z,20.53
2018-06-30T06:13:41.757Z,20.60
2018-06-30T06:16:11.299Z,20.59
2018-06-30T06:18:40.274Z,20.68
2018-06-30T06:21:09.349Z,20.80
2018-06-30T06:23:38.365Z,20.88
2018-06-30T06:26:07.429Z,21.02
2018-06-30T06:28:37.363Z,21.09
2018-06-30T06:31:06.362Z,21.15
2018-06-30T06:33:35.445Z,21.13
2018-06-30T06:36:04.523Z,21.06
2018-06-30T06:38:33.475Z,21.03
2018-06-30T06:41:02.401Z,21.05
2018-06-30T06:43:31.414Z,21.16
2018-06-30T06:46:00.308Z,21.30
2018-06-30T06:48:29.204Z,21.40
2018-06-30T06:50:58.259Z,21.54
2018-06-30T06:53:27.163Z,21.71
2018-06-30T06:55:56.148Z,21.92
2018-06-30T06:58:25.200Z,22.02
2018-06-30T07:00:54.204Z,22.23
2018-06-30T07:03:23.250Z,22.23
2018-06-30T07:05:52.376Z,22.30
2018-06-30T07:08:21.661Z,22.37
2018-06-30T07:10:50.669Z,22.42
2018-06-30T07:13:19.876Z,22.68
2018-06-30T07:15:48.835Z,22.93
2018-06-30T07:18:17.781Z,23.09
2018-06-30T07:20:46.829Z,23.33
2018-06-30T07:23:15.806Z,23.60
2018-06-30T07:25:44.914Z,23.83
2018-06-30T07:28:17.245Z,24.27
2018-06-30T07:30:46.227Z,24.60
2018-06-30T07:33:15.273Z,24.74
2018-06-30T07:35:44.265Z,24.49
2018-06-30T07:38:13.215Z,24.54
2018-06-30T07:40:42.204Z,24.73
2018-06-30T07:43:11.151Z,24.67
2018-06-30T07:45:40.089Z,24.58
2018-06-30T07:48:09.151Z,24.58
2018-06-30T07:50:38.256Z,24.63
2018-06-30T07:53:07.220Z,24.70
2018-06-30T07:55:36.731Z,24.54
2018-06-30T07:58:05.780Z,24.36
2018-06-30T08:00:34.712Z,24.28
2018-06-30T08:03:03.628Z,24.29
2018-06-30T08:05:32.543Z,24.40
2018-06-30T08:08:01.459Z,24.53
2018-06-30T08:10:30.363Z,24.66
2018-06-30T08:12:59.282Z,24.82
2018-06-30T08:15:28.261Z,25.03
2018-06-30T08:17:57.698Z,25.12
2018-06-30T08:20:26.691Z,24.77
2018-06-30T08:22:55.740Z,24.58
2018-06-30T08:25:24.660Z,24.59
2018-06-30T08:27:54.518Z,24.55
2018-06-30T08:30:24.267Z,24.36
2018-06-30T08:32:53.180Z,24.23
2018-06-30T08:35:22.223Z,24.22
2018-06-30T08:37:51.880Z,24.35
2018-06-30T08:40:21.926Z,24.44
2018-06-30T08:42:50.877Z,24.52
2018-06-30T08:45:20.473Z,24.43
2018-06-30T08:47:49.589Z,24.37
2018-06-30T08:50:20.117Z,24.36
2018-06-30T08:52:49.799Z,24.38
2018-06-30T08:55:18.775Z,24.32
2018-06-30T08:57:47.720Z,24.28
2018-06-30T09:00:16.862Z,24.28
2018-06-30T09:02:45.772Z,24.20
2018-06-30T09:05:14.746Z,24.15
2018-06-30T09:07:45.458Z,24.08
2018-06-30T09:10:14.444Z,24.03
2018-06-30T09:12:44.821Z,24.05
2018-06-30T09:15:13.807Z,24.06
2018-06-30T09:17:43.151Z,24.01
2018-06-30T09:20:12.236Z,24.02
2018-06-30T09:22:41.127Z,24.11
2018-06-30T09:25:10.100Z,24.11
2018-06-30T09:27:39.076Z,24.13
2018-06-30T09:30:09.992Z,24.16
2018-06-30T09:32:40.108Z,24.08
2018-06-30T09:35:09.040Z,23.93
2018-06-30T09:37:38.088Z,23.81
2018-06-30T09:40:07.188Z,23.85
2018-06-30T09:42:36.237Z,23.85
2018-06-30T09:45:05.365Z,23.82
2018-06-30T09:47:35.025Z,23.79
2018-06-30T09:50:04.096Z,23.76
2018-06-30T09:52:33.042Z,23.78
2018-06-30T09:55:02.049Z,23.86
2018-06-30T09:57:30.970Z,23.95
2018-06-30T09:59:59.880Z,24.06
2018-06-30T10:02:28.956Z,24.14
2018-06-30T10:04:57.858Z,24.18
2018-06-30T10:07:28.278Z,24.20
2018-06-30T10:09:57.265Z,24.28
2018-06-30T10:12:26.879Z,24.32
2018-06-30T10:14:55.852Z,24.35
2018-06-30T10:17:25.468Z,24.40
2018-06-30T10:19:54.395Z,24.36
2018-06-30T10:22:23.304Z,24.36
2018-06-30T10:24:52.260Z,24.41
2018-06-30T10:27:21.241Z,24.39
2018-06-30T10:29:50.253Z,24.48
2018-06-30T10:32:19.365Z,24.52
2018-06-30T10:34:48.297Z,24.50
2018-06-30T10:37:17.269Z,24.51
2018-06-30T10:39:47.463Z,24.66
2018-06-30T10:42:16.512Z,24.83
2018-06-30T10:44:45.635Z,24.98
2018-06-30T10:47:14.613Z,25.41
2018-06-30T10:49:43.589Z,25.57
2018-06-30T10:52:12.590Z,25.70
2018-06-30T10:54:41.705Z,25.69
2018-06-30T10:57:10.750Z,25.75
2018-06-30T10:59:39.643Z,25.78
2018-06-30T11:02:08.718Z,25.75
2018-06-30T11:04:37.637Z,25.77
2018-06-30T11:07:06.705Z,25.84
2018-06-30T11:09:35.803Z,25.96
2018-06-30T11:12:04.924Z,26.06
2018-06-30T11:14:33.829Z,26.18
2018-06-30T11:17:03.276Z,26.21
2018-06-30T11:19:32.260Z,26.19
2018-06-30T11:22:01.244Z,26.14
2018-06-30T11:24:30.241Z,26.05
2018-06-30T11:26:59.164Z,26.09
2018-06-30T11:29:28.125Z,26.14
2018-06-30T11:31:57.293Z,26.24
2018-06-30T11:34:27.379Z,26.32
2018-06-30T11:36:56.331Z,26.33
2018-06-30T11:39:25.286Z,26.32
2018-06-30T11:41:54.206Z,26.42
2018-06-30T11:44:23.180Z,26.52
2018-06-30T11:46:52.115Z,26.75
2018-06-30T11:49:21.021Z,26.99
2018-06-30T11:51:50.052Z,27.29
2018-06-30T11:54:19.076Z,27.52
2018-06-30T11:56:48.057Z,27.65
2018-06-30T11:59:17.027Z,27.75
2018-06-30T12:01:46.060Z,27.73
2018-06-30T12:04:15.163Z,27.89
2018-06-30T12:06:44.127Z,28.14
2018-06-30T12:09:13.073Z,28.37
2018-06-30T12:11:42.049Z,28.51
2018-06-30T12:14:11.081Z,28.57
2018-06-30T12:16:40.208Z,28.77
2018-06-30T12:19:09.198Z,28.90
2018-06-30T12:21:38.182Z,29.13
2018-06-30T12:24:07.173Z,29.32
2018-06-30T12:26:36.130Z,29.19
2018-06-30T12:29:05.130Z,29.07
2018-06-30T12:31:34.111Z,28.70
2018-06-30T12:34:03.063Z,28.20
2018-06-30T12:36:32.177Z,28.04
2018-06-30T12:39:01.180Z,27.82
2018-06-30T12:41:30.149Z,27.87
2018-06-30T12:43:59.205Z,28.05
2018-06-30T12:46:28.164Z,28.24
2018-06-30T12:51:20.007Z,28.64
2018-06-30T12:53:48.969Z,28.94
2018-06-30T12:56:17.919Z,28.95
2018-06-30T12:58:46.978Z,28.92
2018-06-30T13:01:15.896Z,28.67
2018-06-30T13:03:44.865Z,28.55
2018-06-30T13:06:13.912Z,28.61
2018-06-30T13:08:42.865Z,28.71
2018-06-30T13:11:11.761Z,28.68
2018-06-30T13:13:40.842Z,28.69
2018-06-30T13:16:09.818Z,28.76
2018-06-30T13:18:38.850Z,28.72
2018-06-30T13:21:08.091Z,28.68
2018-06-30T13:23:39.184Z,28.63
2018-06-30T13:26:08.177Z,28.59
2018-06-30T13:28:37.099Z,28.49
2018-06-30T13:31:06.156Z,28.38
2018-06-30T13:33:35.192Z,28.44
2018-06-30T13:36:04.292Z,28.41
2018-06-30T13:38:33.942Z,28.43
2018-06-30T13:41:02.957Z,28.41
2018-06-30T13:43:32.004Z,28.34
2018-06-30T13:46:01.074Z,28.29
2018-06-30T13:48:30.055Z,28.32
2018-06-30T13:50:59.055Z,28.27
2018-06-30T13:53:28.425Z,28.08
2018-06-30T13:55:57.657Z,28.05
2018-06-30T13:58:26.583Z,28.04
2018-06-30T14:00:55.556Z,28.10
2018-06-30T14:03:24.533Z,28.12
2018-06-30T14:05:54.147Z,28.12
2018-06-30T14:08:23.098Z,28.06
2018-06-30T14:10:52.115Z,28.08
2018-06-30T14:13:23.690Z,28.13
2018-06-30T14:15:52.754Z,28.18
2018-06-30T14:18:21.793Z,28.20
2018-06-30T14:20:50.732Z,28.18
2018-06-30T14:23:21.909Z,28.10
2018-06-30T14:25:53.940Z,28.03
2018-06-30T14:28:23.032Z,27.91
2018-06-30T14:30:52.017Z,27.77
2018-06-30T14:33:20.913Z,27.64
2018-06-30T14:35:50.196Z,27.60
2018-06-30T14:38:19.157Z,27.54
2018-06-30T14:40:48.322Z,27.53
2018-06-30T14:43:17.895Z,27.58
2018-06-30T14:45:46.825Z,27.68
2018-06-30T14:48:15.921Z,27.79
2018-06-30T14:50:44.963Z,27.85
2018-06-30T14:53:14.491Z,27.91
2018-06-30T14:55:43.472Z,27.99
2018-06-30T14:58:12.582Z,27.93
2018-06-30T15:00:41.677Z,27.83
2018-06-30T15:03:10.636Z,27.72
2018-06-30T15:05:40.509Z,27.65
2018-06-30T15:08:09.444Z,27.64
2018-06-30T15:10:38.453Z,27.65
2018-06-30T15:13:07.454Z,27.56
2018-06-30T15:15:36.521Z,27.53
2018-06-30T15:18:05.660Z,27.52
2018-06-30T15:20:34.649Z,27.54
2018-06-30T15:23:03.745Z,27.53
2018-06-30T15:25:32.701Z,27.47
2018-06-30T15:28:01.746Z,27.43
2018-06-30T15:30:30.680Z,27.37
2018-06-30T15:32:59.581Z,27.21
2018-06-30T15:35:28.598Z,26.70
2018-06-30T15:37:57.593Z,26.08
2018-06-30T15:40:26.597Z,25.43
2018-06-30T15:42:55.886Z,25.13
2018-06-30T15:45:24.816Z,24.79
2018-06-30T15:47:53.725Z,24.38
2018-06-30T15:52:56.772Z,23.76
2018-06-30T15:55:25.828Z,23.49
2018-06-30T15:57:54.809Z,23.29
2018-06-30T16:00:23.972Z,23.14
2018-06-30T16:02:55.316Z,22.93
2018-06-30T16:05:24.293Z,22.76
2018-06-30T16:07:53.228Z,22.63
2018-06-30T16:10:22.251Z,22.53
2018-06-30T16:12:51.215Z,22.40
2018-06-30T16:15:20.183Z,22.36
2018-06-30T16:17:49.248Z,22.27
2018-06-30T16:20:18.241Z,22.17
2018-06-30T16:22:47.193Z,22.06
2018-06-30T16:25:16.185Z,22.05
2018-06-30T16:27:45.270Z,22.01
2018-06-30T16:30:14.277Z,22.07
2018-06-30T16:32:43.214Z,22.11
2018-06-30T16:35:12.757Z,22.17
2018-06-30T16:37:41.676Z,22.16
2018-06-30T16:40:10.688Z,22.21
2018-06-30T16:42:39.724Z,22.20
2018-06-30T16:45:08.916Z,22.21
2018-06-30T16:47:37.942Z,22.20
2018-06-30T16:50:07.477Z,22.15
2018-06-30T16:52:37.106Z,22.07
2018-06-30T16:55:06.871Z,21.95
2018-06-30T16:57:35.845Z,21.82
2018-06-30T17:00:05.947Z,21.72
2018-06-30T17:02:35.753Z,21.62
2018-06-30T17:05:04.825Z,21.49
2018-06-30T17:07:33.795Z,21.36
2018-06-30T17:10:02.844Z,21.28
2018-06-30T17:12:32.421Z,21.30
2018-06-30T17:15:01.397Z,21.25
2018-06-30T17:17:30.434Z,21.26
2018-06-30T17:19:59.412Z,21.34
2018-06-30T17:22:28.649Z,21.38
2018-06-30T17:24:57.615Z,21.45
2018-06-30T17:27:26.539Z,21.57
2018-06-30T17:29:55.445Z,21.67
2018-06-30T17:32:24.440Z,21.75
2018-06-30T17:34:54.094Z,21.78
2018-06-30T17:37:23.047Z,21.78
2018-06-30T17:39:52.864Z,21.69
2018-06-30T17:42:21.899Z,21.58
2018-06-30T17:44:50.901Z,21.38
2018-06-30T17:47:20.233Z,21.26
2018-06-30T17:49:49.167Z,21.23
2018-06-30T17:52:18.114Z,21.26
2018-06-30T17:54:47.151Z,21.25
2018-06-30T17:57:16.071Z,21.26
2018-06-30T17:59:45.030Z,21.26
2018-06-30T18:02:14.240Z,21.34
2018-06-30T18:04:43.257Z,21.32
2018-06-30T18:07:12.285Z,21.41
2018-06-30T18:09:41.278Z,21.46
2018-06-30T18:12:10.197Z,21.50
2018-06-30T18:14:39.180Z,21.52
2018-06-30T18:17:08.292Z,21.50
2018-06-30T18:19:37.238Z,21.53
2018-06-30T18:22:06.199Z,21.58
2018-06-30T18:24:35.196Z,21.59
2018-06-30T18:27:04.165Z,21.63
2018-06-30T18:29:33.140Z,21.66
2018-06-30T18:32:02.232Z,21.72
2018-06-30T18:34:31.161Z,21.80
2018-06-30T18:37:00.624Z,21.90
2018-06-30T18:39:29.727Z,22.05
2018-06-30T18:41:58.824Z,22.08
2018-06-30T18:44:27.715Z,22.23
2018-06-30T18:46:56.697Z,22.29
2018-06-30T18:49:25.773Z,22.42
2018-06-30T18:51:54.705Z,22.51
2018-06-30T18:54:23.856Z,22.53
2018-06-30T18:56:52.881Z,22.62
2018-06-30T18:59:21.810Z,22.67
2018-06-30T19:01:50.907Z,22.74
2018-06-30T19:04:19.814Z,22.82
2018-06-30T19:06:49.195Z,22.81
2018-06-30T19:09:18.257Z,22.79
2018-06-30T19:11:47.249Z,22.83
2018-06-30T19:14:16.166Z,22.82
2018-06-30T19:16:45.131Z,22.80
2018-06-30T19:19:14.075Z,22.80
2018-06-30T19:21:42.987Z,22.79
2018-06-30T19:24:11.931Z,22.83
2018-06-30T19:26:40.948Z,22.87
2018-06-30T19:29:09.948Z,22.84
2018-06-30T19:31:39.959Z,22.83
2018-06-30T19:34:08.948Z,22.82
2018-06-30T19:36:37.882Z,22.84
2018-06-30T19:39:09.106Z,22.82
2018-06-30T19:41:38.064Z,22.84
2018-06-30T19:44:07.112Z,22.77
2018-06-30T19:46:36.287Z,22.77
2018-06-30T19:49:05.276Z,22.76
2018-06-30T19:51:34.421Z,22.76
2018-06-30T19:54:03.393Z,22.76
2018-06-30T19:56:32.400Z,22.73
2018-06-30T19:59:01.438Z,22.71
2018-06-30T20:01:30.471Z,22.65
2018-06-30T20:03:59.407Z,22.62
2018-06-30T20:06:28.421Z,22.59
2018-06-30T20:08:57.459Z,22.50
2018-06-30T20:11:26.394Z,22.38
2018-06-30T20:13:55.338Z,22.26
2018-06-30T20:16:24.376Z,22.14
2018-06-30T20:18:53.345Z,22.08
2018-06-30T20:21:22.335Z,22.03
2018-06-30T20:23:51.392Z,21.98
2018-06-30T20:26:20.340Z,21.94
2018-06-30T20:28:49.317Z,21.89
2018-06-30T20:31:18.287Z,21.85
2018-06-30T20:33:47.301Z,21.86
2018-06-30T20:36:16.162Z,21.80
2018-06-30T20:38:45.192Z,21.71
2018-06-30T20:41:14.168Z,21.61
2018-06-30T20:43:43.079Z,21.58
2018-06-30T20:46:12.111Z,21.56
2018-06-30T20:48:41.794Z,21.61
2018-06-30T20:51:10.732Z,21.66
2018-06-30T20:53:39.947Z,21.75
2018-06-30T20:56:08.954Z,21.85
2018-06-30T20:58:37.862Z,21.89
2018-06-30T21:01:06.942Z,21.94
2018-06-30T21:03:36.637Z,21.96
2018-06-30T21:06:07.756Z,22.00
2018-06-30T21:08:36.763Z,22.01
2018-06-30T21:11:05.784Z,21.97
2018-06-30T21:13:34.901Z,21.68
2018-06-30T21:16:03.913Z,21.31
2018-06-30T21:18:33.043Z,21.15
2018-06-30T21:21:03.069Z,21.05
2018-06-30T21:23:31.990Z,20.93
2018-06-30T21:26:00.980Z,20.84
2018-06-30T21:28:29.954Z,20.75
2018-06-30T21:30:58.955Z,20.69
2018-06-30T21:33:27.919Z,20.66
2018-06-30T21:35:57.881Z,20.63
2018-06-30T21:38:27.526Z,20.56
2018-06-30T21:40:56.428Z,20.52
2018-06-30T21:43:25.477Z,20.47
2018-06-30T21:45:54.399Z,20.36
2018-06-30T21:48:23.421Z,20.21
2018-06-30T21:50:52.395Z,20.14
2018-06-30T21:53:21.327Z,19.99
2018-06-30T21:55:50.431Z,19.93
2018-06-30T21:58:19.429Z,19.86
2018-06-30T22:00:53.371Z,19.81
2018-06-30T22:03:24.821Z,19.74
2018-06-30T22:05:54.962Z,19.70
2018-06-30T22:08:24.006Z,19.65
2018-06-30T22:10:53.318Z,19.59
2018-06-30T22:13:22.282Z,19.60
2018-06-30T22:15:51.438Z,19.62
2018-06-30T22:18:21.297Z,19.66
2018-06-30T22:20:50.362Z,19.63
2018-06-30T22:23:19.320Z,19.66
2018-06-30T22:25:49.347Z,19.66
2018-06-30T22:28:18.324Z,19.67
2018-06-30T22:30:47.329Z,19.69
2018-06-30T22:33:16.396Z,19.77
2018-06-30T22:35:45.360Z,19.81
2018-06-30T22:38:14.407Z,19.86
2018-06-30T22:40:43.427Z,19.89
2018-06-30T22:43:12.383Z,19.88
2018-06-30T22:45:41.471Z,19.87
2018-06-30T22:48:10.584Z,19.89
2018-06-30T22:50:39.556Z,19.90
2018-06-30T22:53:08.622Z,19.90
2018-06-30T22:55:37.707Z,19.92
2018-06-30T22:58:08.689Z,19.94
2018-06-30T23:00:38.424Z,20.00
2018-06-30T23:03:11.816Z,20.00
2018-06-30T23:05:41.789Z,19.98
2018-06-30T23:08:10.816Z,19.96
2018-06-30T23:10:39.744Z,19.90
2018-06-30T23:13:08.844Z,19.88
2018-06-30T23:15:39.961Z,19.95
2018-06-30T23:18:08.955Z,20.12
2018-06-30T23:20:37.895Z,20.24
2018-06-30T23:23:08.865Z,20.31
2018-06-30T23:25:38.546Z,20.40
2018-06-30T23:28:08.064Z,20.53
2018-06-30T23:30:37.141Z,20.63
2018-06-30T23:33:06.323Z,20.58
2018-06-30T23:38:09.450Z,20.40
2018-06-30T23:40:38.451Z,20.34
2018-06-30T23:43:08.095Z,20.23
2018-06-30T23:45:37.171Z,20.09
2018-06-30T23:48:06.716Z,20.01
2018-06-30T23:50:35.629Z,19.93
2018-06-30T23:53:04.596Z,19.81
2018-06-30T23:55:33.571Z,19.69
2018-06-30T23:58:02.552Z,19.64
